sensor_id;sensor_type;location;lat;lon;timestamp;P1;durP1;ratioP1;P2;durP2;ratioP2
75417;SDS011;63997;52.112;5.420;2023-08-17T00:01:29;3.90;;;1.52;;
75417;SDS011;63997;52.112;5.420;2023-08-17T00:03:56;2.67;;;1.63;;
75417;SDS011;63997;52.112;5.420;2023-08-17T00:06:22;3.50;;;1.60;;
75417;SDS011;63997;52.112;5.420;2023-08-17T00:08:49;2.90;;;1.35;;
75417;SDS011;63997;52.112;5.420;2023-08-17T00:11:15;4.78;;;2.42;;
75417;SDS011;63997;52.112;5.420;2023-08-17T00:13:42;4.32;;;1.50;;
75417;SDS011;63997;52.112;5.420;2023-08-17T00:16:08;2.50;;;1.48;;
75417;SDS011;63997;52.112;5.420;2023-08-17T00:18:35;3.60;;;1.43;;
75417;SDS011;63997;52.112;5.420;2023-08-17T00:21:01;6.70;;;1.73;;
75417;SDS011;63997;52.112;5.420;2023-08-17T00:23:27;5.32;;;2.17;;
75417;SDS011;63997;52.112;5.420;2023-08-17T00:25:54;4.70;;;2.03;;
75417;SDS011;63997;52.112;5.420;2023-08-17T00:28:21;5.63;;;1.55;;
75417;SDS011;63997;52.112;5.420;2023-08-17T00:30:47;3.63;;;1.80;;
75417;SDS011;63997;52.112;5.420;2023-08-17T00:33:16;4.20;;;1.95;;
75417;SDS011;63997;52.112;5.420;2023-08-17T00:35:42;4.60;;;1.27;;
75417;SDS011;63997;52.112;5.420;2023-08-17T00:38:09;4.00;;;1.90;;
75417;SDS011;63997;52.112;5.420;2023-08-17T00:40:36;3.85;;;1.60;;
75417;SDS011;63997;52.112;5.420;2023-08-17T00:43:02;5.13;;;1.50;;
75417;SDS011;63997;52.112;5.420;2023-08-17T00:45:29;4.38;;;1.70;;
75417;SDS011;63997;52.112;5.420;2023-08-17T00:47:56;3.20;;;1.70;;
75417;SDS011;63997;52.112;5.420;2023-08-17T00:50:23;4.63;;;1.73;;
75417;SDS011;63997;52.112;5.420;2023-08-17T00:52:51;2.42;;;1.50;;
75417;SDS011;63997;52.112;5.420;2023-08-17T00:55:19;5.67;;;1.93;;
75417;SDS011;63997;52.112;5.420;2023-08-17T00:57:46;4.57;;;1.70;;
75417;SDS011;63997;52.112;5.420;2023-08-17T01:00:13;4.55;;;1.95;;
75417;SDS011;63997;52.112;5.420;2023-08-17T01:02:44;4.18;;;1.75;;
75417;SDS011;63997;52.112;5.420;2023-08-17T01:05:12;3.30;;;1.60;;
75417;SDS011;63997;52.112;5.420;2023-08-17T01:07:39;4.63;;;1.90;;
75417;SDS011;63997;52.112;5.420;2023-08-17T01:10:06;3.30;;;1.58;;
75417;SDS011;63997;52.112;5.420;2023-08-17T01:15:36;4.25;;;1.55;;
75417;SDS011;63997;52.112;5.420;2023-08-17T01:18:29;2.85;;;1.60;;
75417;SDS011;63997;52.112;5.420;2023-08-17T01:21:03;3.20;;;1.70;;
75417;SDS011;63997;52.112;5.420;2023-08-17T01:23:32;3.08;;;1.58;;
75417;SDS011;63997;52.112;5.420;2023-08-17T01:25:58;4.57;;;1.92;;
75417;SDS011;63997;52.112;5.420;2023-08-17T01:28:25;4.53;;;1.60;;
75417;SDS011;63997;52.112;5.420;2023-08-17T01:30:55;3.85;;;2.28;;
75417;SDS011;63997;52.112;5.420;2023-08-17T01:33:29;4.50;;;1.40;;
75417;SDS011;63997;52.112;5.420;2023-08-17T01:36:06;4.20;;;1.75;;
75417;SDS011;63997;52.112;5.420;2023-08-17T01:38:48;4.03;;;1.60;;
75417;SDS011;63997;52.112;5.420;2023-08-17T01:41:19;4.60;;;1.17;;
75417;SDS011;63997;52.112;5.420;2023-08-17T01:43:47;3.60;;;1.45;;
75417;SDS011;63997;52.112;5.420;2023-08-17T01:46:14;5.67;;;1.70;;
75417;SDS011;63997;52.112;5.420;2023-08-17T01:48:42;9.70;;;1.80;;
75417;SDS011;63997;52.112;5.420;2023-08-17T01:51:10;5.82;;;1.88;;
75417;SDS011;63997;52.112;5.420;2023-08-17T01:53:42;6.40;;;1.70;;
75417;SDS011;63997;52.112;5.420;2023-08-17T01:56:10;3.10;;;1.55;;
75417;SDS011;63997;52.112;5.420;2023-08-17T01:58:36;3.57;;;1.70;;
75417;SDS011;63997;52.112;5.420;2023-08-17T02:01:03;3.25;;;1.35;;
75417;SDS011;63997;52.112;5.420;2023-08-17T02:03:30;5.45;;;2.28;;
75417;SDS011;63997;52.112;5.420;2023-08-17T02:05:56;4.68;;;1.63;;
75417;SDS011;63997;52.112;5.420;2023-08-17T02:08:23;4.57;;;1.40;;
75417;SDS011;63997;52.112;5.420;2023-08-17T02:10:49;5.13;;;1.60;;
75417;SDS011;63997;52.112;5.420;2023-08-17T02:13:16;6.63;;;1.50;;
75417;SDS011;63997;52.112;5.420;2023-08-17T02:15:43;4.20;;;1.40;;
75417;SDS011;63997;52.112;5.420;2023-08-17T02:18:10;3.78;;;1.42;;
75417;SDS011;63997;52.112;5.420;2023-08-17T02:20:36;2.47;;;1.58;;
75417;SDS011;63997;52.112;5.420;2023-08-17T02:23:03;3.47;;;1.60;;
75417;SDS011;63997;52.112;5.420;2023-08-17T02:25:29;3.97;;;1.92;;
75417;SDS011;63997;52.112;5.420;2023-08-17T02:28:02;5.65;;;2.00;;
75417;SDS011;63997;52.112;5.420;2023-08-17T02:30:30;5.47;;;2.03;;
75417;SDS011;63997;52.112;5.420;2023-08-17T02:32:57;3.45;;;1.60;;
75417;SDS011;63997;52.112;5.420;2023-08-17T02:35:24;4.47;;;1.67;;
75417;SDS011;63997;52.112;5.420;2023-08-17T02:37:50;5.32;;;2.10;;
75417;SDS011;63997;52.112;5.420;2023-08-17T02:40:17;5.97;;;1.67;;
75417;SDS011;63997;52.112;5.420;2023-08-17T02:42:44;3.83;;;2.10;;
75417;SDS011;63997;52.112;5.420;2023-08-17T02:45:10;4.50;;;1.63;;
75417;SDS011;63997;52.112;5.420;2023-08-17T02:47:36;7.27;;;2.03;;
75417;SDS011;63997;52.112;5.420;2023-08-17T02:50:03;3.05;;;1.92;;
75417;SDS011;63997;52.112;5.420;2023-08-17T02:52:30;6.47;;;2.20;;
75417;SDS011;63997;52.112;5.420;2023-08-17T02:54:56;2.50;;;1.90;;
75417;SDS011;63997;52.112;5.420;2023-08-17T02:57:23;4.57;;;2.00;;
75417;SDS011;63997;52.112;5.420;2023-08-17T02:59:50;6.93;;;2.17;;
75417;SDS011;63997;52.112;5.420;2023-08-17T03:02:17;4.43;;;1.83;;
75417;SDS011;63997;52.112;5.420;2023-08-17T03:04:43;3.03;;;2.25;;
75417;SDS011;63997;52.112;5.420;2023-08-17T03:07:10;2.90;;;2.17;;
75417;SDS011;63997;52.112;5.420;2023-08-17T03:09:36;4.60;;;2.17;;
75417;SDS011;63997;52.112;5.420;2023-08-17T03:12:02;3.73;;;1.57;;
75417;SDS011;63997;52.112;5.420;2023-08-17T03:14:29;7.22;;;1.80;;
75417;SDS011;63997;52.112;5.420;2023-08-17T03:16:55;2.78;;;1.75;;
75417;SDS011;63997;52.112;5.420;2023-08-17T03:19:22;4.80;;;1.95;;
75417;SDS011;63997;52.112;5.420;2023-08-17T03:21:48;3.97;;;2.10;;
75417;SDS011;63997;52.112;5.420;2023-08-17T03:24:15;3.93;;;1.83;;
75417;SDS011;63997;52.112;5.420;2023-08-17T03:26:41;5.88;;;1.95;;
75417;SDS011;63997;52.112;5.420;2023-08-17T03:29:08;3.80;;;2.08;;
75417;SDS011;63997;52.112;5.420;2023-08-17T03:31:36;6.90;;;2.47;;
75417;SDS011;63997;52.112;5.420;2023-08-17T03:34:02;3.70;;;1.80;;
75417;SDS011;63997;52.112;5.420;2023-08-17T03:36:29;6.33;;;2.30;;
75417;SDS011;63997;52.112;5.420;2023-08-17T03:38:55;3.53;;;1.70;;
75417;SDS011;63997;52.112;5.420;2023-08-17T03:41:22;7.05;;;1.70;;
75417;SDS011;63997;52.112;5.420;2023-08-17T03:43:51;3.88;;;1.83;;
75417;SDS011;63997;52.112;5.420;2023-08-17T03:46:17;3.17;;;1.67;;
75417;SDS011;63997;52.112;5.420;2023-08-17T03:48:44;6.63;;;2.00;;
75417;SDS011;63997;52.112;5.420;2023-08-17T03:51:10;6.80;;;2.03;;
75417;SDS011;63997;52.112;5.420;2023-08-17T03:53:36;7.03;;;2.00;;
75417;SDS011;63997;52.112;5.420;2023-08-17T03:56:03;5.13;;;1.80;;
75417;SDS011;63997;52.112;5.420;2023-08-17T03:58:30;5.78;;;1.70;;
75417;SDS011;63997;52.112;5.420;2023-08-17T04:01:00;3.43;;;1.83;;
75417;SDS011;63997;52.112;5.420;2023-08-17T04:03:28;6.78;;;1.50;;
75417;SDS011;63997;52.112;5.420;2023-08-17T04:05:54;6.55;;;1.88;;
75417;SDS011;63997;52.112;5.420;2023-08-17T04:08:21;7.72;;;1.50;;
75417;SDS011;63997;52.112;5.420;2023-08-17T04:10:47;5.65;;;1.65;;
75417;SDS011;63997;52.112;5.420;2023-08-17T04:13:13;4.03;;;1.80;;
75417;SDS011;63997;52.112;5.420;2023-08-17T04:15:40;2.05;;;1.23;;
75417;SDS011;63997;52.112;5.420;2023-08-17T04:18:08;4.10;;;1.60;;
75417;SDS011;63997;52.112;5.420;2023-08-17T04:20:34;5.78;;;1.65;;
75417;SDS011;63997;52.112;5.420;2023-08-17T04:23:01;6.65;;;1.50;;
75417;SDS011;63997;52.112;5.420;2023-08-17T04:25:27;3.30;;;1.43;;
75417;SDS011;63997;52.112;5.420;2023-08-17T04:27:54;3.38;;;1.17;;
75417;SDS011;63997;52.112;5.420;2023-08-17T04:30:20;3.83;;;1.80;;
75417;SDS011;63997;52.112;5.420;2023-08-17T04:32:47;2.47;;;1.20;;
75417;SDS011;63997;52.112;5.420;2023-08-17T04:35:19;5.38;;;1.48;;
75417;SDS011;63997;52.112;5.420;2023-08-17T04:37:46;3.17;;;0.90;;
75417;SDS011;63997;52.112;5.420;2023-08-17T04:40:17;8.15;;;1.40;;
75417;SDS011;63997;52.112;5.420;2023-08-17T04:42:43;3.67;;;1.25;;
75417;SDS011;63997;52.112;5.420;2023-08-17T04:45:10;5.72;;;1.23;;
75417;SDS011;63997;52.112;5.420;2023-08-17T04:47:36;4.15;;;1.30;;
75417;SDS011;63997;52.112;5.420;2023-08-17T04:50:04;3.00;;;1.13;;
75417;SDS011;63997;52.112;5.420;2023-08-17T04:52:31;3.30;;;1.10;;
75417;SDS011;63997;52.112;5.420;2023-08-17T04:54:57;2.25;;;1.40;;
75417;SDS011;63997;52.112;5.420;2023-08-17T04:57:24;4.40;;;1.20;;
75417;SDS011;63997;52.112;5.420;2023-08-17T04:59:51;4.10;;;1.20;;
75417;SDS011;63997;52.112;5.420;2023-08-17T05:02:17;3.63;;;1.10;;
75417;SDS011;63997;52.112;5.420;2023-08-17T05:04:45;3.30;;;1.23;;
75417;SDS011;63997;52.112;5.420;2023-08-17T05:07:13;4.25;;;1.00;;
75417;SDS011;63997;52.112;5.420;2023-08-17T05:09:40;6.55;;;1.20;;
75417;SDS011;63997;52.112;5.420;2023-08-17T05:12:09;4.97;;;1.20;;
75417;SDS011;63997;52.112;5.420;2023-08-17T05:14:38;3.30;;;1.00;;
75417;SDS011;63997;52.112;5.420;2023-08-17T05:17:04;2.80;;;0.90;;
75417;SDS011;63997;52.112;5.420;2023-08-17T05:19:30;3.35;;;0.88;;
75417;SDS011;63997;52.112;5.420;2023-08-17T05:21:57;1.67;;;0.90;;
75417;SDS011;63997;52.112;5.420;2023-08-17T05:24:24;3.97;;;0.80;;
75417;SDS011;63997;52.112;5.420;2023-08-17T05:26:50;2.87;;;0.93;;
75417;SDS011;63997;52.112;5.420;2023-08-17T05:29:17;5.57;;;0.90;;
75417;SDS011;63997;52.112;5.420;2023-08-17T05:31:43;3.08;;;0.80;;
75417;SDS011;63997;52.112;5.420;2023-08-17T05:34:10;5.05;;;0.90;;
75417;SDS011;63997;52.112;5.420;2023-08-17T05:36:36;3.17;;;1.15;;
75417;SDS011;63997;52.112;5.420;2023-08-17T05:39:03;4.60;;;1.00;;
75417;SDS011;63997;52.112;5.420;2023-08-17T05:41:29;5.07;;;1.20;;
75417;SDS011;63997;52.112;5.420;2023-08-17T05:43:56;2.53;;;0.85;;
75417;SDS011;63997;52.112;5.420;2023-08-17T05:46:22;2.85;;;1.00;;
75417;SDS011;63997;52.112;5.420;2023-08-17T05:48:49;6.50;;;1.13;;
75417;SDS011;63997;52.112;5.420;2023-08-17T05:51:15;2.00;;;1.03;;
75417;SDS011;63997;52.112;5.420;2023-08-17T05:53:42;4.07;;;1.42;;
75417;SDS011;63997;52.112;5.420;2023-08-17T05:56:08;4.05;;;1.42;;
75417;SDS011;63997;52.112;5.420;2023-08-17T05:58:35;6.07;;;1.23;;
75417;SDS011;63997;52.112;5.420;2023-08-17T06:01:05;3.53;;;0.98;;
75417;SDS011;63997;52.112;5.420;2023-08-17T06:03:34;3.97;;;1.03;;
75417;SDS011;63997;52.112;5.420;2023-08-17T06:06:02;4.72;;;1.10;;
75417;SDS011;63997;52.112;5.420;2023-08-17T06:08:29;3.10;;;1.25;;
75417;SDS011;63997;52.112;5.420;2023-08-17T06:10:56;4.10;;;1.13;;
75417;SDS011;63997;52.112;5.420;2023-08-17T06:13:23;3.65;;;1.15;;
75417;SDS011;63997;52.112;5.420;2023-08-17T06:15:49;3.63;;;1.20;;
75417;SDS011;63997;52.112;5.420;2023-08-17T06:18:16;3.17;;;1.30;;
75417;SDS011;63997;52.112;5.420;2023-08-17T06:20:42;5.05;;;1.40;;
75417;SDS011;63997;52.112;5.420;2023-08-17T06:23:09;2.90;;;1.50;;
75417;SDS011;63997;52.112;5.420;2023-08-17T06:25:35;5.72;;;1.30;;
75417;SDS011;63997;52.112;5.420;2023-08-17T06:28:01;9.67;;;1.57;;
75417;SDS011;63997;52.112;5.420;2023-08-17T06:30:28;3.65;;;1.05;;
75417;SDS011;63997;52.112;5.420;2023-08-17T06:32:55;2.90;;;1.13;;
75417;SDS011;63997;52.112;5.420;2023-08-17T06:35:21;4.40;;;1.30;;
75417;SDS011;63997;52.112;5.420;2023-08-17T06:37:48;4.60;;;1.20;;
75417;SDS011;63997;52.112;5.420;2023-08-17T06:40:14;3.03;;;1.13;;
75417;SDS011;63997;52.112;5.420;2023-08-17T06:42:41;6.25;;;1.10;;
75417;SDS011;63997;52.112;5.420;2023-08-17T06:45:09;3.20;;;1.45;;
75417;SDS011;63997;52.112;5.420;2023-08-17T06:47:36;1.95;;;1.10;;
75417;SDS011;63997;52.112;5.420;2023-08-17T06:50:03;3.75;;;1.83;;
75417;SDS011;63997;52.112;5.420;2023-08-17T06:52:30;3.50;;;1.00;;
75417;SDS011;63997;52.112;5.420;2023-08-17T06:54:56;5.20;;;1.30;;
75417;SDS011;63997;52.112;5.420;2023-08-17T06:57:23;3.03;;;1.52;;
75417;SDS011;63997;52.112;5.420;2023-08-17T06:59:50;2.75;;;1.05;;
75417;SDS011;63997;52.112;5.420;2023-08-17T07:02:16;3.58;;;1.23;;
75417;SDS011;63997;52.112;5.420;2023-08-17T07:04:42;5.13;;;0.90;;
75417;SDS011;63997;52.112;5.420;2023-08-17T07:07:09;2.85;;;1.13;;
75417;SDS011;63997;52.112;5.420;2023-08-17T07:09:35;6.07;;;1.20;;
75417;SDS011;63997;52.112;5.420;2023-08-17T07:12:02;2.33;;;1.00;;
75417;SDS011;63997;52.112;5.420;2023-08-17T07:14:29;16.20;;;1.30;;
75417;SDS011;63997;52.112;5.420;2023-08-17T07:16:55;6.57;;;1.10;;
75417;SDS011;63997;52.112;5.420;2023-08-17T07:19:22;4.70;;;1.52;;
75417;SDS011;63997;52.112;5.420;2023-08-17T07:22:08;3.45;;;0.85;;
75417;SDS011;63997;52.112;5.420;2023-08-17T07:24:35;5.82;;;1.63;;
75417;SDS011;63997;52.112;5.420;2023-08-17T07:27:01;5.93;;;1.35;;
75417;SDS011;63997;52.112;5.420;2023-08-17T07:29:27;3.20;;;1.17;;
75417;SDS011;63997;52.112;5.420;2023-08-17T07:31:54;4.95;;;2.05;;
75417;SDS011;63997;52.112;5.420;2023-08-17T07:34:20;3.85;;;1.08;;
75417;SDS011;63997;52.112;5.420;2023-08-17T07:36:47;2.08;;;1.00;;
75417;SDS011;63997;52.112;5.420;2023-08-17T07:39:13;5.10;;;1.05;;
75417;SDS011;63997;52.112;5.420;2023-08-17T07:41:40;2.53;;;1.20;;
75417;SDS011;63997;52.112;5.420;2023-08-17T07:44:06;2.50;;;0.90;;
75417;SDS011;63997;52.112;5.420;2023-08-17T07:46:34;3.10;;;1.30;;
75417;SDS011;63997;52.112;5.420;2023-08-17T07:49:05;3.28;;;1.45;;
75417;SDS011;63997;52.112;5.420;2023-08-17T07:51:44;3.80;;;1.35;;
75417;SDS011;63997;52.112;5.420;2023-08-17T07:54:10;5.70;;;1.00;;
75417;SDS011;63997;52.112;5.420;2023-08-17T07:56:36;3.53;;;1.00;;
75417;SDS011;63997;52.112;5.420;2023-08-17T07:59:03;5.30;;;1.02;;
75417;SDS011;63997;52.112;5.420;2023-08-17T08:01:29;2.33;;;1.20;;
75417;SDS011;63997;52.112;5.420;2023-08-17T08:03:56;4.00;;;1.05;;
75417;SDS011;63997;52.112;5.420;2023-08-17T08:06:22;2.47;;;0.97;;
75417;SDS011;63997;52.112;5.420;2023-08-17T08:08:49;4.63;;;1.02;;
75417;SDS011;63997;52.112;5.420;2023-08-17T08:11:15;3.40;;;1.20;;
75417;SDS011;63997;52.112;5.420;2023-08-17T08:13:42;4.45;;;1.23;;
75417;SDS011;63997;52.112;5.420;2023-08-17T08:16:08;2.63;;;1.10;;
75417;SDS011;63997;52.112;5.420;2023-08-17T08:18:35;3.77;;;1.10;;
75417;SDS011;63997;52.112;5.420;2023-08-17T08:21:01;4.00;;;1.20;;
75417;SDS011;63997;52.112;5.420;2023-08-17T08:23:28;3.30;;;1.00;;
75417;SDS011;63997;52.112;5.420;2023-08-17T08:25:55;2.90;;;1.20;;
75417;SDS011;63997;52.112;5.420;2023-08-17T08:28:22;4.18;;;1.05;;
75417;SDS011;63997;52.112;5.420;2023-08-17T08:30:49;4.23;;;1.40;;
75417;SDS011;63997;52.112;5.420;2023-08-17T08:33:15;3.97;;;1.70;;
75417;SDS011;63997;52.112;5.420;2023-08-17T08:35:41;6.07;;;1.17;;
75417;SDS011;63997;52.112;5.420;2023-08-17T08:38:08;5.53;;;1.00;;
75417;SDS011;63997;52.112;5.420;2023-08-17T08:40:34;4.03;;;1.77;;
75417;SDS011;63997;52.112;5.420;2023-08-17T08:43:03;3.27;;;1.37;;
75417;SDS011;63997;52.112;5.420;2023-08-17T08:45:30;7.72;;;1.35;;
75417;SDS011;63997;52.112;5.420;2023-08-17T08:47:57;2.97;;;0.90;;
75417;SDS011;63997;52.112;5.420;2023-08-17T08:50:26;4.50;;;1.27;;
75417;SDS011;63997;52.112;5.420;2023-08-17T08:52:58;2.70;;;1.00;;
75417;SDS011;63997;52.112;5.420;2023-08-17T08:55:30;8.13;;;1.43;;
75417;SDS011;63997;52.112;5.420;2023-08-17T08:58:10;4.90;;;1.50;;
75417;SDS011;63997;52.112;5.420;2023-08-17T09:00:37;2.78;;;1.00;;
75417;SDS011;63997;52.112;5.420;2023-08-17T09:03:04;5.20;;;0.90;;
75417;SDS011;63997;52.112;5.420;2023-08-17T09:05:31;5.80;;;1.40;;
75417;SDS011;63997;52.112;5.420;2023-08-17T09:08:00;1.93;;;1.00;;
75417;SDS011;63997;52.112;5.420;2023-08-17T09:10:28;5.18;;;1.63;;
75417;SDS011;63997;52.112;5.420;2023-08-17T09:12:57;3.53;;;1.10;;
75417;SDS011;63997;52.112;5.420;2023-08-17T09:15:24;2.00;;;1.00;;
75417;SDS011;63997;52.112;5.420;2023-08-17T09:17:50;2.22;;;0.98;;
75417;SDS011;63997;52.112;5.420;2023-08-17T09:20:39;3.03;;;1.07;;
75417;SDS011;63997;52.112;5.420;2023-08-17T09:23:16;5.75;;;1.40;;
75417;SDS011;63997;52.112;5.420;2023-08-17T09:25:46;2.90;;;0.82;;
75417;SDS011;63997;52.112;5.420;2023-08-17T09:28:14;5.78;;;1.50;;
75417;SDS011;63997;52.112;5.420;2023-08-17T09:30:52;3.47;;;1.42;;
75417;SDS011;63997;52.112;5.420;2023-08-17T09:33:19;3.33;;;1.20;;
75417;SDS011;63997;52.112;5.420;2023-08-17T09:35:47;3.65;;;1.20;;
75417;SDS011;63997;52.112;5.420;2023-08-17T09:38:14;4.60;;;1.20;;
75417;SDS011;63997;52.112;5.420;2023-08-17T09:40:41;9.23;;;1.33;;
75417;SDS011;63997;52.112;5.420;2023-08-17T09:43:09;6.57;;;1.90;;
75417;SDS011;63997;52.112;5.420;2023-08-17T09:45:39;2.90;;;1.20;;
75417;SDS011;63997;52.112;5.420;2023-08-17T09:48:07;4.35;;;1.45;;
75417;SDS011;63997;52.112;5.420;2023-08-17T09:50:34;4.72;;;1.45;;
75417;SDS011;63997;52.112;5.420;2023-08-17T09:53:04;3.08;;;1.60;;
75417;SDS011;63997;52.112;5.420;2023-08-17T09:55:31;4.65;;;1.40;;
75417;SDS011;63997;52.112;5.420;2023-08-17T09:58:00;4.47;;;1.53;;
75417;SDS011;63997;52.112;5.420;2023-08-17T10:00:27;5.00;;;1.30;;
75417;SDS011;63997;52.112;5.420;2023-08-17T10:02:55;5.32;;;2.08;;
75417;SDS011;63997;52.112;5.420;2023-08-17T10:05:35;5.82;;;1.95;;
75417;SDS011;63997;52.112;5.420;2023-08-17T10:08:06;4.57;;;1.63;;
75417;SDS011;63997;52.112;5.420;2023-08-17T10:10:34;4.50;;;1.50;;
75417;SDS011;63997;52.112;5.420;2023-08-17T10:13:09;5.28;;;1.45;;
75417;SDS011;63997;52.112;5.420;2023-08-17T10:16:11;3.42;;;1.40;;
75417;SDS011;63997;52.112;5.420;2023-08-17T10:18:37;4.45;;;1.77;;
75417;SDS011;63997;52.112;5.420;2023-08-17T10:21:23;6.47;;;2.47;;
75417;SDS011;63997;52.112;5.420;2023-08-17T10:23:55;3.10;;;1.83;;
75417;SDS011;63997;52.112;5.420;2023-08-17T10:26:23;3.60;;;1.55;;
75417;SDS011;63997;52.112;5.420;2023-08-17T10:28:51;4.25;;;1.70;;
75417;SDS011;63997;52.112;5.420;2023-08-17T10:31:20;5.38;;;2.03;;
75417;SDS011;63997;52.112;5.420;2023-08-17T10:33:47;5.32;;;1.75;;
75417;SDS011;63997;52.112;5.420;2023-08-17T10:36:14;5.57;;;1.47;;
75417;SDS011;63997;52.112;5.420;2023-08-17T10:38:41;5.40;;;2.30;;
75417;SDS011;63997;52.112;5.420;2023-08-17T10:41:12;3.72;;;1.73;;
75417;SDS011;63997;52.112;5.420;2023-08-17T10:43:55;3.67;;;1.58;;
75417;SDS011;63997;52.112;5.420;2023-08-17T10:46:32;8.85;;;1.90;;
75417;SDS011;63997;52.112;5.420;2023-08-17T10:52:04;6.93;;;1.95;;
75417;SDS011;63997;52.112;5.420;2023-08-17T10:54:39;8.68;;;2.22;;
75417;SDS011;63997;52.112;5.420;2023-08-17T10:57:43;5.05;;;1.40;;
75417;SDS011;63997;52.112;5.420;2023-08-17T11:02:57;4.33;;;1.70;;
75417;SDS011;63997;52.112;5.420;2023-08-17T11:05:45;3.88;;;1.77;;
75417;SDS011;63997;52.112;5.420;2023-08-17T11:11:12;4.50;;;2.08;;
75417;SDS011;63997;52.112;5.420;2023-08-17T11:13:40;8.02;;;2.53;;
75417;SDS011;63997;52.112;5.420;2023-08-17T11:16:09;6.27;;;1.80;;
75417;SDS011;63997;52.112;5.420;2023-08-17T11:18:42;6.75;;;2.33;;
75417;SDS011;63997;52.112;5.420;2023-08-17T11:21:10;6.47;;;2.63;;
75417;SDS011;63997;52.112;5.420;2023-08-17T11:23:37;6.28;;;2.22;;
75417;SDS011;63997;52.112;5.420;2023-08-17T11:26:04;8.15;;;2.03;;
75417;SDS011;63997;52.112;5.420;2023-08-17T11:28:31;5.30;;;2.13;;
75417;SDS011;63997;52.112;5.420;2023-08-17T11:31:11;4.95;;;2.20;;
75417;SDS011;63997;52.112;5.420;2023-08-17T11:33:39;6.43;;;2.15;;
75417;SDS011;63997;52.112;5.420;2023-08-17T11:36:07;6.93;;;2.08;;
75417;SDS011;63997;52.112;5.420;2023-08-17T11:38:38;7.07;;;2.10;;
75417;SDS011;63997;52.112;5.420;2023-08-17T11:41:07;4.90;;;2.00;;
75417;SDS011;63997;52.112;5.420;2023-08-17T11:43:35;7.28;;;2.20;;
75417;SDS011;63997;52.112;5.420;2023-08-17T11:46:02;3.58;;;1.85;;
75417;SDS011;63997;52.112;5.420;2023-08-17T11:48:29;4.72;;;2.17;;
75417;SDS011;63997;52.112;5.420;2023-08-17T11:51:01;6.00;;;2.70;;
75417;SDS011;63997;52.112;5.420;2023-08-17T11:53:32;6.43;;;2.10;;
75417;SDS011;63997;52.112;5.420;2023-08-17T11:56:03;4.32;;;2.00;;
75417;SDS011;63997;52.112;5.420;2023-08-17T11:58:42;5.45;;;2.13;;
75417;SDS011;63997;52.112;5.420;2023-08-17T12:01:10;6.93;;;2.28;;
75417;SDS011;63997;52.112;5.420;2023-08-17T12:03:40;5.07;;;2.20;;
75417;SDS011;63997;52.112;5.420;2023-08-17T12:06:09;7.87;;;2.37;;
75417;SDS011;63997;52.112;5.420;2023-08-17T12:08:36;5.78;;;2.45;;
75417;SDS011;63997;52.112;5.420;2023-08-17T12:11:02;4.78;;;2.08;;
75417;SDS011;63997;52.112;5.420;2023-08-17T12:13:30;4.25;;;2.45;;
75417;SDS011;63997;52.112;5.420;2023-08-17T12:15:58;4.45;;;2.00;;
75417;SDS011;63997;52.112;5.420;2023-08-17T12:18:25;5.33;;;2.10;;
75417;SDS011;63997;52.112;5.420;2023-08-17T12:20:54;3.67;;;2.20;;
75417;SDS011;63997;52.112;5.420;2023-08-17T12:23:21;3.83;;;2.03;;
75417;SDS011;63997;52.112;5.420;2023-08-17T12:25:52;6.68;;;2.10;;
75417;SDS011;63997;52.112;5.420;2023-08-17T12:28:20;6.68;;;2.03;;
75417;SDS011;63997;52.112;5.420;2023-08-17T12:30:46;5.00;;;2.30;;
75417;SDS011;63997;52.112;5.420;2023-08-17T12:33:12;2.95;;;1.98;;
75417;SDS011;63997;52.112;5.420;2023-08-17T12:35:39;3.13;;;1.88;;
75417;SDS011;63997;52.112;5.420;2023-08-17T12:38:06;4.85;;;2.38;;
75417;SDS011;63997;52.112;5.420;2023-08-17T12:40:32;4.47;;;2.28;;
75417;SDS011;63997;52.112;5.420;2023-08-17T12:42:59;5.03;;;2.40;;
75417;SDS011;63997;52.112;5.420;2023-08-17T12:45:25;5.97;;;2.15;;
75417;SDS011;63997;52.112;5.420;2023-08-17T12:47:53;4.93;;;2.47;;
75417;SDS011;63997;52.112;5.420;2023-08-17T12:50:20;9.48;;;2.40;;
75417;SDS011;63997;52.112;5.420;2023-08-17T12:52:47;5.55;;;2.00;;
75417;SDS011;63997;52.112;5.420;2023-08-17T12:55:13;4.50;;;2.27;;
75417;SDS011;63997;52.112;5.420;2023-08-17T12:57:40;4.28;;;2.00;;
75417;SDS011;63997;52.112;5.420;2023-08-17T13:00:06;4.00;;;2.08;;
75417;SDS011;63997;52.112;5.420;2023-08-17T13:02:33;2.80;;;2.17;;
75417;SDS011;63997;52.112;5.420;2023-08-17T13:05:00;5.30;;;2.00;;
75417;SDS011;63997;52.112;5.420;2023-08-17T13:07:26;4.80;;;2.67;;
75417;SDS011;63997;52.112;5.420;2023-08-17T13:09:52;2.95;;;1.98;;
75417;SDS011;63997;52.112;5.420;2023-08-17T13:12:19;3.13;;;2.03;;
75417;SDS011;63997;52.112;5.420;2023-08-17T13:14:45;5.25;;;2.70;;
75417;SDS011;63997;52.112;5.420;2023-08-17T13:17:12;4.65;;;2.17;;
75417;SDS011;63997;52.112;5.420;2023-08-17T13:19:40;3.47;;;2.20;;
75417;SDS011;63997;52.112;5.420;2023-08-17T13:22:07;4.50;;;2.22;;
75417;SDS011;63997;52.112;5.420;2023-08-17T13:24:33;5.35;;;2.25;;
75417;SDS011;63997;52.112;5.420;2023-08-17T13:27:00;4.60;;;2.30;;
75417;SDS011;63997;52.112;5.420;2023-08-17T13:29:26;5.30;;;2.25;;
75417;SDS011;63997;52.112;5.420;2023-08-17T13:31:53;4.67;;;2.10;;
75417;SDS011;63997;52.112;5.420;2023-08-17T13:34:19;4.70;;;2.45;;
75417;SDS011;63997;52.112;5.420;2023-08-17T13:36:46;4.57;;;2.40;;
75417;SDS011;63997;52.112;5.420;2023-08-17T13:39:13;6.88;;;3.42;;
75417;SDS011;63997;52.112;5.420;2023-08-17T13:41:39;4.47;;;2.08;;
75417;SDS011;63997;52.112;5.420;2023-08-17T13:44:06;8.50;;;2.40;;
75417;SDS011;63997;52.112;5.420;2023-08-17T13:46:33;2.88;;;2.00;;
75417;SDS011;63997;52.112;5.420;2023-08-17T13:48:59;3.15;;;2.10;;
75417;SDS011;63997;52.112;5.420;2023-08-17T13:51:26;3.00;;;2.03;;
75417;SDS011;63997;52.112;5.420;2023-08-17T13:53:52;3.03;;;1.92;;
75417;SDS011;63997;52.112;5.420;2023-08-17T13:56:19;5.67;;;2.20;;
75417;SDS011;63997;52.112;5.420;2023-08-17T13:58:45;3.95;;;2.20;;
75417;SDS011;63997;52.112;5.420;2023-08-17T14:01:12;4.20;;;2.35;;
75417;SDS011;63997;52.112;5.420;2023-08-17T14:03:38;5.13;;;2.30;;
75417;SDS011;63997;52.112;5.420;2023-08-17T14:06:05;3.47;;;1.98;;
75417;SDS011;63997;52.112;5.420;2023-08-17T14:08:39;3.73;;;2.17;;
75417;SDS011;63997;52.112;5.420;2023-08-17T14:11:10;4.55;;;2.60;;
75417;SDS011;63997;52.112;5.420;2023-08-17T14:13:39;5.00;;;2.08;;
75417;SDS011;63997;52.112;5.420;2023-08-17T14:16:10;3.60;;;2.25;;
75417;SDS011;63997;52.112;5.420;2023-08-17T14:18:38;3.08;;;1.88;;
75417;SDS011;63997;52.112;5.420;2023-08-17T14:21:05;5.67;;;2.20;;
75417;SDS011;63997;52.112;5.420;2023-08-17T14:23:31;6.60;;;2.42;;
75417;SDS011;63997;52.112;5.420;2023-08-17T14:25:58;4.65;;;2.13;;
75417;SDS011;63997;52.112;5.420;2023-08-17T14:28:25;5.70;;;2.60;;
75417;SDS011;63997;52.112;5.420;2023-08-17T14:30:53;3.83;;;3.17;;
75417;SDS011;63997;52.112;5.420;2023-08-17T14:33:19;4.03;;;2.50;;
75417;SDS011;63997;52.112;5.420;2023-08-17T14:35:47;4.07;;;2.42;;
75417;SDS011;63997;52.112;5.420;2023-08-17T14:38:14;5.70;;;2.78;;
75417;SDS011;63997;52.112;5.420;2023-08-17T14:40:44;5.43;;;3.00;;
75417;SDS011;63997;52.112;5.420;2023-08-17T14:43:12;4.38;;;2.45;;
75417;SDS011;63997;52.112;5.420;2023-08-17T14:45:40;5.50;;;2.60;;
75417;SDS011;63997;52.112;5.420;2023-08-17T14:48:07;3.67;;;2.80;;
75417;SDS011;63997;52.112;5.420;2023-08-17T14:50:34;3.53;;;2.50;;
75417;SDS011;63997;52.112;5.420;2023-08-17T14:53:02;2.33;;;2.13;;
75417;SDS011;63997;52.112;5.420;2023-08-17T14:55:29;4.80;;;2.75;;
75417;SDS011;63997;52.112;5.420;2023-08-17T14:57:56;3.60;;;2.40;;
75417;SDS011;63997;52.112;5.420;2023-08-17T15:00:28;4.88;;;2.65;;
75417;SDS011;63997;52.112;5.420;2023-08-17T15:02:58;5.95;;;2.80;;
75417;SDS011;63997;52.112;5.420;2023-08-17T15:05:26;6.30;;;2.90;;